sensor_id;sensor_type;location;lat;lon;timestamp;P1;durP1;ratioP1;P2;durP2;ratioP2
15608;SDS011;64278;45.642;13.756;2023-02-18T00:01:23;13.73;;;12.35;;
15608;SDS011;64278;45.642;13.756;2023-02-18T00:03:49;13.50;;;12.20;;
15608;SDS011;64278;45.642;13.756;2023-02-18T00:06:17;13.65;;;12.35;;
15608;SDS011;64278;45.642;13.756;2023-02-18T00:08:48;13.98;;;12.63;;
15608;SDS011;64278;45.642;13.756;2023-02-18T00:11:14;14.18;;;12.77;;
15608;SDS011;64278;45.642;13.756;2023-02-18T00:13:41;13.55;;;12.25;;
15608;SDS011;64278;45.642;13.756;2023-02-18T00:16:08;14.35;;;13.00;;
15608;SDS011;64278;45.642;13.756;2023-02-18T00:18:35;13.98;;;12.57;;
15608;SDS011;64278;45.642;13.756;2023-02-18T00:21:05;13.90;;;12.52;;
15608;SDS011;64278;45.642;13.756;2023-02-18T00:23:32;12.68;;;11.48;;
15608;SDS011;64278;45.642;13.756;2023-02-18T00:26:02;12.75;;;11.65;;
15608;SDS011;64278;45.642;13.756;2023-02-18T00:28:28;13.20;;;12.00;;
15608;SDS011;64278;45.642;13.756;2023-02-18T00:30:54;12.85;;;11.43;;
15608;SDS011;64278;45.642;13.756;2023-02-18T00:33:19;13.80;;;12.40;;
15608;SDS011;64278;45.642;13.756;2023-02-18T00:35:45;13.32;;;12.07;;
15608;SDS011;64278;45.642;13.756;2023-02-18T00:38:11;12.70;;;11.52;;
15608;SDS011;64278;45.642;13.756;2023-02-18T00:40:37;13.48;;;12.27;;
15608;SDS011;64278;45.642;13.756;2023-02-18T00:43:03;13.00;;;11.80;;
15608;SDS011;64278;45.642;13.756;2023-02-18T00:45:29;12.90;;;11.77;;
15608;SDS011;64278;45.642;13.756;2023-02-18T00:47:54;13.23;;;12.02;;
15608;SDS011;64278;45.642;13.756;2023-02-18T00:50:20;12.65;;;11.32;;
15608;SDS011;64278;45.642;13.756;2023-02-18T00:52:46;12.13;;;11.02;;
15608;SDS011;64278;45.642;13.756;2023-02-18T00:55:11;12.45;;;11.35;;
15608;SDS011;64278;45.642;13.756;2023-02-18T00:57:37;11.73;;;10.63;;
15608;SDS011;64278;45.642;13.756;2023-02-18T01:00:03;13.32;;;12.05;;
15608;SDS011;64278;45.642;13.756;2023-02-18T01:02:30;13.38;;;12.13;;
15608;SDS011;64278;45.642;13.756;2023-02-18T01:04:56;13.63;;;12.32;;
15608;SDS011;64278;45.642;13.756;2023-02-18T01:07:21;14.15;;;12.80;;
15608;SDS011;64278;45.642;13.756;2023-02-18T01:09:47;14.18;;;12.80;;
15608;SDS011;64278;45.642;13.756;2023-02-18T01:12:13;13.15;;;11.85;;
15608;SDS011;64278;45.642;13.756;2023-02-18T01:14:39;14.68;;;13.27;;
15608;SDS011;64278;45.642;13.756;2023-02-18T01:17:05;14.68;;;13.30;;
15608;SDS011;64278;45.642;13.756;2023-02-18T01:19:30;14.30;;;12.93;;
15608;SDS011;64278;45.642;13.756;2023-02-18T01:21:56;16.38;;;14.65;;
15608;SDS011;64278;45.642;13.756;2023-02-18T01:24:22;15.73;;;14.23;;
15608;SDS011;64278;45.642;13.756;2023-02-18T01:26:47;16.38;;;14.70;;
15608;SDS011;64278;45.642;13.756;2023-02-18T01:29:13;15.27;;;13.68;;
15608;SDS011;64278;45.642;13.756;2023-02-18T01:31:39;15.98;;;14.18;;
15608;SDS011;64278;45.642;13.756;2023-02-18T01:34:04;14.48;;;13.02;;
15608;SDS011;64278;45.642;13.756;2023-02-18T01:36:30;15.95;;;14.32;;
15608;SDS011;64278;45.642;13.756;2023-02-18T01:38:55;14.90;;;13.32;;
15608;SDS011;64278;45.642;13.756;2023-02-18T01:41:21;14.23;;;13.02;;
15608;SDS011;64278;45.642;13.756;2023-02-18T01:43:47;15.02;;;13.60;;
15608;SDS011;64278;45.642;13.756;2023-02-18T01:48:52;13.85;;;12.48;;
15608;SDS011;64278;45.642;13.756;2023-02-18T01:51:22;14.70;;;13.40;;
15608;SDS011;64278;45.642;13.756;2023-02-18T01:56:24;14.20;;;12.98;;
15608;SDS011;64278;45.642;13.756;2023-02-18T01:59:03;14.90;;;13.40;;
15608;SDS011;64278;45.642;13.756;2023-02-18T02:01:33;15.00;;;13.45;;
15608;SDS011;64278;45.642;13.756;2023-02-18T02:03:59;15.40;;;13.88;;
15608;SDS011;64278;45.642;13.756;2023-02-18T02:06:25;16.05;;;14.48;;
15608;SDS011;64278;45.642;13.756;2023-02-18T02:08:52;16.45;;;14.85;;
15608;SDS011;64278;45.642;13.756;2023-02-18T02:14:03;15.27;;;13.77;;
15608;SDS011;64278;45.642;13.756;2023-02-18T02:16:43;14.98;;;13.55;;
15608;SDS011;64278;45.642;13.756;2023-02-18T02:19:36;15.70;;;14.02;;
15608;SDS011;64278;45.642;13.756;2023-02-18T02:33:45;14.77;;;13.43;;
15608;SDS011;64278;45.642;13.756;2023-02-18T02:36:28;17.02;;;15.35;;
15608;SDS011;64278;45.642;13.756;2023-02-18T02:42:27;16.48;;;14.80;;
15608;SDS011;64278;45.642;13.756;2023-02-18T02:45:32;16.30;;;14.70;;
15608;SDS011;64278;45.642;13.756;2023-02-18T02:48:11;14.88;;;13.48;;
15608;SDS011;64278;45.642;13.756;2023-02-18T02:53:30;17.17;;;15.15;;
15608;SDS011;64278;45.642;13.756;2023-02-18T02:55:59;15.93;;;14.32;;
15608;SDS011;64278;45.642;13.756;2023-02-18T02:58:24;16.67;;;15.00;;
15608;SDS011;64278;45.642;13.756;2023-02-18T03:18:06;15.68;;;14.18;;
15608;SDS011;64278;45.642;13.756;2023-02-18T03:21:25;15.80;;;14.18;;
15608;SDS011;64278;45.642;13.756;2023-02-18T03:24:08;15.48;;;13.98;;
15608;SDS011;64278;45.642;13.756;2023-02-18T03:26:53;16.73;;;15.13;;
15608;SDS011;64278;45.642;13.756;2023-02-18T03:29:23;16.35;;;14.75;;
15608;SDS011;64278;45.642;13.756;2023-02-18T03:31:53;15.50;;;14.10;;
15608;SDS011;64278;45.642;13.756;2023-02-18T03:34:28;15.60;;;14.07;;
15608;SDS011;64278;45.642;13.756;2023-02-18T03:36:57;16.13;;;14.52;;
15608;SDS011;64278;45.642;13.756;2023-02-18T03:39:25;16.92;;;15.10;;
15608;SDS011;64278;45.642;13.756;2023-02-18T03:41:53;16.45;;;14.88;;
15608;SDS011;64278;45.642;13.756;2023-02-18T03:44:19;15.80;;;14.30;;
15608;SDS011;64278;45.642;13.756;2023-02-18T03:46:45;16.60;;;15.02;;
15608;SDS011;64278;45.642;13.756;2023-02-18T03:49:11;15.38;;;13.93;;
15608;SDS011;64278;45.642;13.756;2023-02-18T03:51:38;16.02;;;14.52;;
15608;SDS011;64278;45.642;13.756;2023-02-18T03:54:04;15.35;;;13.95;;
15608;SDS011;64278;45.642;13.756;2023-02-18T03:56:29;15.63;;;14.02;;
15608;SDS011;64278;45.642;13.756;2023-02-18T03:58:55;16.70;;;15.02;;
15608;SDS011;64278;45.642;13.756;2023-02-18T04:01:21;17.27;;;15.57;;
15608;SDS011;64278;45.642;13.756;2023-02-18T04:03:47;16.77;;;15.07;;
15608;SDS011;64278;45.642;13.756;2023-02-18T04:06:12;16.15;;;14.55;;
15608;SDS011;64278;45.642;13.756;2023-02-18T04:08:38;16.98;;;15.32;;
15608;SDS011;64278;45.642;13.756;2023-02-18T04:11:04;17.70;;;15.90;;
15608;SDS011;64278;45.642;13.756;2023-02-18T04:13:30;16.85;;;15.25;;
15608;SDS011;64278;45.642;13.756;2023-02-18T04:15:56;16.77;;;15.07;;
15608;SDS011;64278;45.642;13.756;2023-02-18T04:18:22;18.02;;;16.23;;
15608;SDS011;64278;45.642;13.756;2023-02-18T04:20:47;16.98;;;15.30;;
15608;SDS011;64278;45.642;13.756;2023-02-18T04:23:13;18.70;;;16.60;;
15608;SDS011;64278;45.642;13.756;2023-02-18T04:25:39;18.20;;;16.40;;
15608;SDS011;64278;45.642;13.756;2023-02-18T04:28:05;17.40;;;15.60;;
15608;SDS011;64278;45.642;13.756;2023-02-18T04:30:31;18.38;;;16.48;;
15608;SDS011;64278;45.642;13.756;2023-02-18T04:32:56;18.40;;;16.55;;
15608;SDS011;64278;45.642;13.756;2023-02-18T04:35:22;18.02;;;16.27;;
15608;SDS011;64278;45.642;13.756;2023-02-18T04:37:48;17.90;;;16.20;;
15608;SDS011;64278;45.642;13.756;2023-02-18T04:40:14;18.77;;;16.95;;
15608;SDS011;64278;45.642;13.756;2023-02-18T04:42:40;19.30;;;17.23;;
15608;SDS011;64278;45.642;13.756;2023-02-18T04:45:06;17.25;;;15.40;;
15608;SDS011;64278;45.642;13.756;2023-02-18T04:47:32;18.17;;;16.33;;
15608;SDS011;64278;45.642;13.756;2023-02-18T04:49:58;17.50;;;15.73;;
15608;SDS011;64278;45.642;13.756;2023-02-18T04:52:23;16.85;;;15.15;;
15608;SDS011;64278;45.642;13.756;2023-02-18T04:54:49;17.45;;;15.68;;
15608;SDS011;64278;45.642;13.756;2023-02-18T04:57:15;17.77;;;16.00;;
15608;SDS011;64278;45.642;13.756;2023-02-18T04:59:40;17.30;;;15.50;;
15608;SDS011;64278;45.642;13.756;2023-02-18T05:02:06;17.35;;;15.65;;
15608;SDS011;64278;45.642;13.756;2023-02-18T05:04:32;19.27;;;17.30;;
15608;SDS011;64278;45.642;13.756;2023-02-18T05:06:58;17.63;;;15.93;;
15608;SDS011;64278;45.642;13.756;2023-02-18T05:09:23;15.18;;;13.65;;
15608;SDS011;64278;45.642;13.756;2023-02-18T05:11:49;17.92;;;16.13;;
15608;SDS011;64278;45.642;13.756;2023-02-18T05:14:15;17.38;;;15.65;;
15608;SDS011;64278;45.642;13.756;2023-02-18T05:16:41;16.95;;;15.35;;
15608;SDS011;64278;45.642;13.756;2023-02-18T05:19:07;17.45;;;15.75;;
15608;SDS011;64278;45.642;13.756;2023-02-18T05:21:32;16.63;;;15.02;;
15608;SDS011;64278;45.642;13.756;2023-02-18T05:23:58;16.67;;;15.15;;
15608;SDS011;64278;45.642;13.756;2023-02-18T05:26:24;17.20;;;15.48;;
15608;SDS011;64278;45.642;13.756;2023-02-18T05:28:49;17.65;;;15.85;;
15608;SDS011;64278;45.642;13.756;2023-02-18T05:31:15;16.63;;;15.10;;
15608;SDS011;64278;45.642;13.756;2023-02-18T05:33:41;17.20;;;15.55;;
15608;SDS011;64278;45.642;13.756;2023-02-18T05:36:07;16.98;;;15.27;;
15608;SDS011;64278;45.642;13.756;2023-02-18T05:38:33;16.23;;;14.63;;
15608;SDS011;64278;45.642;13.756;2023-02-18T05:40:58;17.08;;;15.38;;
15608;SDS011;64278;45.642;13.756;2023-02-18T05:43:24;17.27;;;15.57;;
15608;SDS011;64278;45.642;13.756;2023-02-18T05:45:50;16.48;;;14.85;;
15608;SDS011;64278;45.642;13.756;2023-02-18T05:48:15;16.52;;;14.93;;
15608;SDS011;64278;45.642;13.756;2023-02-18T05:50:41;16.13;;;14.63;;
15608;SDS011;64278;45.642;13.756;2023-02-18T05:53:06;17.02;;;15.35;;
15608;SDS011;64278;45.642;13.756;2023-02-18T05:55:32;17.00;;;15.30;;
15608;SDS011;64278;45.642;13.756;2023-02-18T05:58:03;15.95;;;14.38;;
15608;SDS011;64278;45.642;13.756;2023-02-18T06:00:29;16.42;;;14.82;;
15608;SDS011;64278;45.642;13.756;2023-02-18T06:02:56;15.50;;;14.00;;
15608;SDS011;64278;45.642;13.756;2023-02-18T06:05:22;17.55;;;15.90;;
15608;SDS011;64278;45.642;13.756;2023-02-18T06:07:48;15.85;;;14.32;;
15608;SDS011;64278;45.642;13.756;2023-02-18T06:10:13;15.63;;;14.20;;
15608;SDS011;64278;45.642;13.756;2023-02-18T06:12:39;17.15;;;15.48;;
15608;SDS011;64278;45.642;13.756;2023-02-18T06:15:05;16.58;;;15.05;;
15608;SDS011;64278;45.642;13.756;2023-02-18T06:17:31;16.70;;;15.10;;
15608;SDS011;64278;45.642;13.756;2023-02-18T06:19:57;17.13;;;15.43;;
15608;SDS011;64278;45.642;13.756;2023-02-18T06:22:22;16.08;;;14.45;;
15608;SDS011;64278;45.642;13.756;2023-02-18T06:24:48;15.18;;;13.77;;
15608;SDS011;64278;45.642;13.756;2023-02-18T06:27:14;15.95;;;14.48;;
15608;SDS011;64278;45.642;13.756;2023-02-18T06:29:39;15.68;;;14.30;;
15608;SDS011;64278;45.642;13.756;2023-02-18T06:32:05;16.58;;;14.95;;
15608;SDS011;64278;45.642;13.756;2023-02-18T06:34:31;16.85;;;15.25;;
15608;SDS011;64278;45.642;13.756;2023-02-18T06:36:56;15.93;;;14.40;;
15608;SDS011;64278;45.642;13.756;2023-02-18T06:39:22;15.23;;;13.75;;
15608;SDS011;64278;45.642;13.756;2023-02-18T06:41:47;14.40;;;13.10;;
15608;SDS011;64278;45.642;13.756;2023-02-18T06:44:13;16.00;;;14.50;;
15608;SDS011;64278;45.642;13.756;2023-02-18T06:46:43;16.15;;;14.65;;
15608;SDS011;64278;45.642;13.756;2023-02-18T06:49:09;16.55;;;14.90;;
15608;SDS011;64278;45.642;13.756;2023-02-18T06:51:35;16.17;;;14.70;;
15608;SDS011;64278;45.642;13.756;2023-02-18T06:54:00;16.25;;;14.70;;
15608;SDS011;64278;45.642;13.756;2023-02-18T06:56:26;15.32;;;13.93;;
15608;SDS011;64278;45.642;13.756;2023-02-18T06:58:52;15.75;;;14.35;;
15608;SDS011;64278;45.642;13.756;2023-02-18T07:01:17;15.80;;;14.30;;
15608;SDS011;64278;45.642;13.756;2023-02-18T07:03:43;15.18;;;13.88;;
15608;SDS011;64278;45.642;13.756;2023-02-18T07:06:08;15.50;;;14.02;;
15608;SDS011;64278;45.642;13.756;2023-02-18T07:08:34;16.20;;;14.70;;
15608;SDS011;64278;45.642;13.756;2023-02-18T07:11:01;15.65;;;14.20;;
15608;SDS011;64278;45.642;13.756;2023-02-18T07:13:27;14.65;;;13.35;;
15608;SDS011;64278;45.642;13.756;2023-02-18T07:15:53;14.55;;;13.15;;
15608;SDS011;64278;45.642;13.756;2023-02-18T07:18:19;14.98;;;13.65;;
15608;SDS011;64278;45.642;13.756;2023-02-18T07:20:44;14.88;;;13.48;;
15608;SDS011;64278;45.642;13.756;2023-02-18T07:23:10;15.13;;;13.63;;
15608;SDS011;64278;45.642;13.756;2023-02-18T07:25:36;14.05;;;12.75;;
15608;SDS011;64278;45.642;13.756;2023-02-18T07:28:01;14.32;;;12.93;;
15608;SDS011;64278;45.642;13.756;2023-02-18T07:30:27;13.68;;;12.45;;
15608;SDS011;64278;45.642;13.756;2023-02-18T07:32:52;14.75;;;13.35;;
15608;SDS011;64278;45.642;13.756;2023-02-18T07:35:18;14.45;;;13.15;;
15608;SDS011;64278;45.642;13.756;2023-02-18T07:37:48;14.50;;;13.05;;
15608;SDS011;64278;45.642;13.756;2023-02-18T07:40:16;14.93;;;13.32;;
15608;SDS011;64278;45.642;13.756;2023-02-18T07:42:43;14.80;;;13.30;;
15608;SDS011;64278;45.642;13.756;2023-02-18T07:45:10;14.73;;;13.23;;
15608;SDS011;64278;45.642;13.756;2023-02-18T07:47:36;14.63;;;13.23;;
15608;SDS011;64278;45.642;13.756;2023-02-18T07:50:03;14.48;;;13.07;;
15608;SDS011;64278;45.642;13.756;2023-02-18T07:52:29;13.98;;;12.68;;
15608;SDS011;64278;45.642;13.756;2023-02-18T07:54:55;13.63;;;12.40;;
15608;SDS011;64278;45.642;13.756;2023-02-18T07:57:21;13.85;;;12.45;;
15608;SDS011;64278;45.642;13.756;2023-02-18T07:59:46;15.52;;;14.13;;
15608;SDS011;64278;45.642;13.756;2023-02-18T08:02:19;13.70;;;12.40;;
15608;SDS011;64278;45.642;13.756;2023-02-18T08:04:46;14.27;;;12.88;;
15608;SDS011;64278;45.642;13.756;2023-02-18T08:07:16;14.43;;;13.13;;
15608;SDS011;64278;45.642;13.756;2023-02-18T08:09:43;13.88;;;12.52;;
15608;SDS011;64278;45.642;13.756;2023-02-18T08:12:08;12.88;;;11.68;;
15608;SDS011;64278;45.642;13.756;2023-02-18T08:14:34;13.18;;;11.98;;
15608;SDS011;64278;45.642;13.756;2023-02-18T08:17:00;13.45;;;12.23;;
15608;SDS011;64278;45.642;13.756;2023-02-18T08:19:26;13.45;;;12.15;;
15608;SDS011;64278;45.642;13.756;2023-02-18T08:21:51;14.40;;;12.95;;
15608;SDS011;64278;45.642;13.756;2023-02-18T08:24:17;12.57;;;11.48;;
15608;SDS011;64278;45.642;13.756;2023-02-18T08:26:43;12.98;;;11.77;;
15608;SDS011;64278;45.642;13.756;2023-02-18T08:29:09;13.63;;;12.40;;
15608;SDS011;64278;45.642;13.756;2023-02-18T08:31:34;13.15;;;11.98;;
15608;SDS011;64278;45.642;13.756;2023-02-18T08:34:00;12.85;;;11.65;;
15608;SDS011;64278;45.642;13.756;2023-02-18T08:36:27;14.07;;;12.75;;
15608;SDS011;64278;45.642;13.756;2023-02-18T08:38:54;13.00;;;11.77;;
15608;SDS011;64278;45.642;13.756;2023-02-18T08:41:20;14.30;;;12.90;;
15608;SDS011;64278;45.642;13.756;2023-02-18T08:43:45;14.50;;;13.20;;
15608;SDS011;64278;45.642;13.756;2023-02-18T08:46:12;15.05;;;13.65;;
15608;SDS011;64278;45.642;13.756;2023-02-18T08:48:38;15.43;;;13.93;;
15608;SDS011;64278;45.642;13.756;2023-02-18T08:51:14;15.90;;;14.40;;
15608;SDS011;64278;45.642;13.756;2023-02-18T08:53:41;15.18;;;13.68;;
15608;SDS011;64278;45.642;13.756;2023-02-18T08:56:07;14.82;;;13.45;;
15608;SDS011;64278;45.642;13.756;2023-02-18T08:58:34;14.30;;;13.00;;
15608;SDS011;64278;45.642;13.756;2023-02-18T09:01:02;14.52;;;13.13;;
15608;SDS011;64278;45.642;13.756;2023-02-18T09:03:29;14.55;;;13.13;;
15608;SDS011;64278;45.642;13.756;2023-02-18T09:05:54;14.27;;;12.98;;
15608;SDS011;64278;45.642;13.756;2023-02-18T09:08:21;13.25;;;11.88;;
15608;SDS011;64278;45.642;13.756;2023-02-18T09:10:46;13.63;;;12.38;;
15608;SDS011;64278;45.642;13.756;2023-02-18T09:13:12;13.38;;;12.07;;
15608;SDS011;64278;45.642;13.756;2023-02-18T09:15:38;12.45;;;11.25;;
15608;SDS011;64278;45.642;13.756;2023-02-18T09:18:03;13.63;;;12.35;;
15608;SDS011;64278;45.642;13.756;2023-02-18T09:20:29;13.68;;;12.43;;
15608;SDS011;64278;45.642;13.756;2023-02-18T09:22:54;13.07;;;11.88;;
15608;SDS011;64278;45.642;13.756;2023-02-18T09:25:21;12.88;;;11.60;;
15608;SDS011;64278;45.642;13.756;2023-02-18T09:27:47;13.60;;;12.25;;
15608;SDS011;64278;45.642;13.756;2023-02-18T09:30:13;14.65;;;13.13;;
15608;SDS011;64278;45.642;13.756;2023-02-18T09:32:39;19.15;;;17.20;;
15608;SDS011;64278;45.642;13.756;2023-02-18T09:35:04;25.38;;;22.67;;
15608;SDS011;64278;45.642;13.756;2023-02-18T09:37:30;27.40;;;24.50;;
15608;SDS011;64278;45.642;13.756;2023-02-18T09:39:56;33.88;;;29.27;;
15608;SDS011;64278;45.642;13.756;2023-02-18T09:42:23;34.90;;;30.73;;
15608;SDS011;64278;45.642;13.756;2023-02-18T09:44:55;29.13;;;26.02;;
15608;SDS011;64278;45.642;13.756;2023-02-18T09:47:34;25.20;;;22.50;;
15608;SDS011;64278;45.642;13.756;2023-02-18T09:50:13;25.17;;;22.52;;
15608;SDS011;64278;45.642;13.756;2023-02-18T09:52:44;26.20;;;23.60;;
15608;SDS011;64278;45.642;13.756;2023-02-18T09:57:49;26.73;;;23.73;;
15608;SDS011;64278;45.642;13.756;2023-02-18T10:00:31;24.55;;;21.95;;
15608;SDS011;64278;45.642;13.756;2023-02-18T10:03:06;23.80;;;21.17;;
15608;SDS011;64278;45.642;13.756;2023-02-18T10:05:41;23.08;;;20.63;;
15608;SDS011;64278;45.642;13.756;2023-02-18T10:08:20;21.48;;;19.17;;
15608;SDS011;64278;45.642;13.756;2023-02-18T10:11:09;22.45;;;20.05;;
15608;SDS011;64278;45.642;13.756;2023-02-18T10:13:41;22.58;;;19.80;;
15608;SDS011;64278;45.642;13.756;2023-02-18T10:16:08;21.15;;;19.05;;
15608;SDS011;64278;45.642;13.756;2023-02-18T10:18:40;20.50;;;18.27;;
15608;SDS011;64278;45.642;13.756;2023-02-18T10:21:13;21.98;;;19.33;;
15608;SDS011;64278;45.642;13.756;2023-02-18T10:23:46;20.02;;;17.45;;
15608;SDS011;64278;45.642;13.756;2023-02-18T10:26:25;19.83;;;17.27;;
15608;SDS011;64278;45.642;13.756;2023-02-18T10:28:53;21.50;;;17.10;;
15608;SDS011;64278;45.642;13.756;2023-02-18T10:31:25;19.98;;;17.02;;
15608;SDS011;64278;45.642;13.756;2023-02-18T10:41:38;21.98;;;18.33;;
15608;SDS011;64278;45.642;13.756;2023-02-18T10:52:14;28.33;;;25.33;;
15608;SDS011;64278;45.642;13.756;2023-02-18T10:54:49;33.03;;;29.60;;
15608;SDS011;64278;45.642;13.756;2023-02-18T10:57:19;32.97;;;29.48;;
15608;SDS011;64278;45.642;13.756;2023-02-18T11:02:39;33.40;;;30.00;;
15608;SDS011;64278;45.642;13.756;2023-02-18T11:05:25;37.13;;;33.38;;
15608;SDS011;64278;45.642;13.756;2023-02-18T11:08:00;36.03;;;32.35;;
15608;SDS011;64278;45.642;13.756;2023-02-18T11:10:34;38.00;;;34.05;;
15608;SDS011;64278;45.642;13.756;2023-02-18T11:13:07;37.75;;;33.78;;
15608;SDS011;64278;45.642;13.756;2023-02-18T11:15:36;38.40;;;34.55;;
15608;SDS011;64278;45.642;13.756;2023-02-18T11:18:13;36.03;;;32.25;;
15608;SDS011;64278;45.642;13.756;2023-02-18T11:20:54;35.85;;;32.42;;
15608;SDS011;64278;45.642;13.756;2023-02-18T11:23:22;36.50;;;32.65;;
15608;SDS011;64278;45.642;13.756;2023-02-18T11:30:58;34.35;;;30.65;;
15608;SDS011;64278;45.642;13.756;2023-02-18T11:33:33;32.55;;;29.45;;
15608;SDS011;64278;45.642;13.756;2023-02-18T11:39:33;33.13;;;29.80;;
15608;SDS011;64278;45.642;13.756;2023-02-18T11:41:43;30.05;;;26.95;;
15608;SDS011;64278;45.642;13.756;2023-02-18T11:44:28;31.80;;;28.38;;
15608;SDS011;64278;45.642;13.756;2023-02-18T11:47:00;29.90;;;26.80;;
15608;SDS011;64278;45.642;13.756;2023-02-18T11:49:28;30.33;;;27.10;;
15608;SDS011;64278;45.642;13.756;2023-02-18T11:51:54;27.52;;;24.48;;
15608;SDS011;64278;45.642;13.756;2023-02-18T11:54:28;29.33;;;25.10;;
15608;SDS011;64278;45.642;13.756;2023-02-18T11:57:05;28.25;;;25.27;;
15608;SDS011;64278;45.642;13.756;2023-02-18T11:59:36;27.70;;;24.95;;
15608;SDS011;64278;45.642;13.756;2023-02-18T12:04:48;26.13;;;23.38;;
15608;SDS011;64278;45.642;13.756;2023-02-18T12:07:31;26.05;;;23.05;;
15608;SDS011;64278;45.642;13.756;2023-02-18T12:10:41;24.77;;;22.27;;
15608;SDS011;64278;45.642;13.756;2023-02-18T12:13:14;24.13;;;20.83;;
15608;SDS011;64278;45.642;13.756;2023-02-18T12:32:16;21.20;;;17.90;;
15608;SDS011;64278;45.642;13.756;2023-02-18T12:35:02;22.95;;;17.52;;
15608;SDS011;64278;45.642;13.756;2023-02-18T12:40:02;19.42;;;17.05;;
15608;SDS011;64278;45.642;13.756;2023-02-18T12:45:44;20.35;;;16.77;;
15608;SDS011;64278;45.642;13.756;2023-02-18T12:54:24;16.75;;;15.05;;
15608;SDS011;64278;45.642;13.756;2023-02-18T13:04:57;19.27;;;15.25;;
15608;SDS011;64278;45.642;13.756;2023-02-18T13:13:12;18.60;;;13.13;;
15608;SDS011;64278;45.642;13.756;2023-02-18T13:15:45;14.85;;;13.30;;
15608;SDS011;64278;45.642;13.756;2023-02-18T13:18:23;15.73;;;13.70;;
15608;SDS011;64278;45.642;13.756;2023-02-18T13:21:08;14.60;;;13.05;;
15608;SDS011;64278;45.642;13.756;2023-02-18T13:23:59;13.80;;;12.40;;
15608;SDS011;64278;45.642;13.756;2023-02-18T13:26:28;14.80;;;13.07;;
15608;SDS011;64278;45.642;13.756;2023-02-18T13:30:00;13.75;;;12.43;;
15608;SDS011;64278;45.642;13.756;2023-02-18T13:32:05;15.07;;;12.30;;
15608;SDS011;64278;45.642;13.756;2023-02-18T13:35:00;16.30;;;12.32;;
15608;SDS011;64278;45.642;13.756;2023-02-18T13:40:19;12.60;;;11.30;;
15608;SDS011;64278;45.642;13.756;2023-02-18T13:42:50;12.35;;;10.93;;
15608;SDS011;64278;45.642;13.756;2023-02-18T13:45:24;13.40;;;11.48;;
15608;SDS011;64278;45.642;13.756;2023-02-18T13:47:55;13.32;;;11.93;;
15608;SDS011;64278;45.642;13.756;2023-02-18T13:52:51;13.63;;;11.52;;
15608;SDS011;64278;45.642;13.756;2023-02-18T13:55:22;11.18;;;10.07;;
15608;SDS011;64278;45.642;13.756;2023-02-18T13:57:57;12.95;;;11.60;;
15608;SDS011;64278;45.642;13.756;2023-02-18T14:00:25;12.38;;;10.93;;
15608;SDS011;64278;45.642;13.756;2023-02-18T14:03:01;14.73;;;12.73;;
15608;SDS011;64278;45.642;13.756;2023-02-18T14:05:56;12.93;;;11.55;;
15608;SDS011;64278;45.642;13.756;2023-02-18T14:08:35;12.23;;;10.90;;
15608;SDS011;64278;45.642;13.756;2023-02-18T14:13:42;12.07;;;10.75;;
15608;SDS011;64278;45.642;13.756;2023-02-18T14:16:18;11.80;;;10.50;;
15608;SDS011;64278;45.642;13.756;2023-02-18T14:36:54;11.23;;;10.10;;
15608;SDS011;64278;45.642;13.756;2023-02-18T14:50:30;11.80;;;9.52;;
15608;SDS011;64278;45.642;13.756;2023-02-18T14:53:02;12.50;;;11.25;;
15608;SDS011;64278;45.642;13.756;2023-02-18T14:55:34;11.48;;;10.10;;
15608;SDS011;64278;45.642;13.756;2023-02-18T14:58:23;11.20;;;10.10;;
15608;SDS011;64278;45.642;13.756;2023-02-18T15:03:41;12.07;;;10.88;;
15608;SDS011;64278;45.642;13.756;2023-02-18T15:09:01;11.30;;;10.20;;
15608;SDS011;64278;45.642;13.756;2023-02-18T15:11:48;11.77;;;9.70;;
15608;SDS011;64278;45.642;13.756;2023-02-18T15:14:19;11.50;;;10.35;;
15608;SDS011;64278;45.642;13.756;2023-02-18T15:16:49;11.85;;;10.82;;
15608;SDS011;64278;45.642;13.756;2023-02-18T15:19:16;11.27;;;10.18;;
15608;SDS011;64278;45.642;13.756;2023-02-18T15:21:45;10.07;;;9.20;;
15608;SDS011;64278;45.642;13.756;2023-02-18T15:26:50;10.38;;;9.48;;
15608;SDS011;64278;45.642;13.756;2023-02-18T15:29:18;10.30;;;9.40;;
15608;SDS011;64278;45.642;13.756;2023-02-18T15:31:49;10.98;;;10.07;;
15608;SDS011;64278;45.642;13.756;2023-02-18T15:34:28;10.50;;;9.50;;
15608;SDS011;64278;45.642;13.756;2023-02-18T15:37:00;11.07;;;9.98;;
15608;SDS011;64278;45.642;13.756;2023-02-18T15:39:28;9.75;;;8.95;;
15608;SDS011;64278;45.642;13.756;2023-02-18T15:41:57;10.32;;;9.35;;
15608;SDS011;64278;45.642;13.756;2023-02-18T15:44:28;9.98;;;9.10;;
15608;SDS011;64278;45.642;13.756;2023-02-18T15:46:58;11.48;;;10.48;;
15608;SDS011;64278;45.642;13.756;2023-02-18T15:49:29;10.55;;;9.52;;
15608;SDS011;64278;45.642;13.756;2023-02-18T15:51:56;10.25;;;9.35;;
15608;SDS011;64278;45.642;13.756;2023-02-18T15:54:24;10.00;;;9.20;;
15608;SDS011;64278;45.642;13.756;2023-02-18T15:56:51;10.02;;;9.13;;
15608;SDS011;64278;45.642;13.756;2023-02-18T15:59:20;10.30;;;9.38;;
15608;SDS011;64278;45.642;13.756;2023-02-18T16:01:47;9.88;;;8.88;;
15608;SDS011;64278;45.642;13.756;2023-02-18T16:04:22;9.65;;;8.85;;
15608;SDS011;64278;45.642;13.756;2023-02-18T16:06:53;10.27;;;9.35;;
15608;SDS011;64278;45.642;13.756;2023-02-18T16:09:31;9.68;;;8.77;;
15608;SDS011;64278;45.642;13.756;2023-02-18T16:11:58;9.48;;;8.68;;
15608;SDS011;64278;45.642;13.756;2023-02-18T16:14:35;10.73;;;9.73;;
15608;SDS011;64278;45.642;13.756;2023-02-18T16:17:13;10.68;;;9.60;;
15608;SDS011;64278;45.642;13.756;2023-02-18T16:19:44;10.27;;;9.38;;
15608;SDS011;64278;45.642;13.756;2023-02-18T16:24:58;9.73;;;8.93;;
15608;SDS011;64278;45.642;13.756;2023-02-18T16:27:32;9.73;;;8.88;;
15608;SDS011;64278;45.642;13.756;2023-02-18T16:30:02;10.82;;;9.90;;
15608;SDS011;64278;45.642;13.756;2023-02-18T16:32:41;10.30;;;9.38;;
15608;SDS011;64278;45.642;13.756;2023-02-18T16:35:07;10.90;;;9.98;;
15608;SDS011;64278;45.642;13.756;2023-02-18T16:37:32;10.05;;;9.05;;
15608;SDS011;64278;45.642;13.756;2023-02-18T16:40:21;10.73;;;9.82;;
15608;SDS011;64278;45.642;13.756;2023-02-18T16:42:47;11.13;;;10.13;;
15608;SDS011;64278;45.642;13.756;2023-02-18T16:45:12;10.18;;;9.27;;
15608;SDS011;64278;45.642;13.756;2023-02-18T16:47:39;11.35;;;10.32;;
15608;SDS011;64278;45.642;13.756;2023-02-18T16:50:18;11.50;;;10.50;;
15608;SDS011;64278;45.642;13.756;2023-02-18T16:52:46;11.43;;;10.32;;
15608;SDS011;64278;45.642;13.756;2023-02-18T16:57:48;10.98;;;10.05;;
15608;SDS011;64278;45.642;13.756;2023-02-18T17:00:14;12.23;;;11.15;;
15608;SDS011;64278;45.642;13.756;2023-02-18T17:02:44;11.95;;;10.90;;
15608;SDS011;64278;45.642;13.756;2023-02-18T17:05:20;11.98;;;10.88;;
15608;SDS011;64278;45.642;13.756;2023-02-18T17:07:50;12.90;;;11.82;;
15608;SDS011;64278;45.642;13.756;2023-02-18T17:10:15;14.48;;;13.18;;
15608;SDS011;64278;45.642;13.756;2023-02-18T17:12:41;12.50;;;11.32;;